Share

Arnett, OK

6:17 PM CDT on April 23, 2014 (GMT -0500)
Barnes - Farm (KOKGAGE2) Elev 2220 ft | 36.28 °N, 99.80 °W | Change Station
Active Advisory: Severe Thunderstorm Watch

Current weather conditions updated 2 seconds ago

Clear
Clear
79.7 °F
Feels Like 80 °F
N
21.0
Wind Variable Wind from SSE
Gusts 31.0 mph
Sunrise 6:55 AM
Sunset 8:19 PM
Moon Waning Crescent

Tomorrow is forecast to be Cooler than today.

Pressure 29.50 in
Visibility 10.0 miles
Clouds Clear
Heat Index 80 °F
Dew Point 58 °F
Humidity 47%
Rainfall 0.00 in
Snow Depth Not available.
UV 0.0 out of 16
Pollen 11.80 out of 12
Air Quality Not available.
Flu Activity Regional
METAR KGAG 232253Z AUTO 18026G36KT 10SM CLR 28/11 A2957 RMK AO2 PK WND 17036/2250 LTG DSNT E SLP989 T02780111 $

More Conditions Fewer Conditions

Pressure 29.50 in
Visibility 10.0 miles
Clouds Clear
Heat Index 80 °F
Dew Point 58 °F
Humidity 47%
Rainfall 0.00 in
Snow Depth Not available.
UV 0.0 out of 16
Pollen 11.80 out of 12
Air Quality Not available.
Flu Activity Regional
METAR KGAG 232253Z AUTO 18026G36KT 10SM CLR 28/11 A2957 RMK AO2 PK WND 17036/2250 LTG DSNT E SLP989 T02780111 $

More Conditions Fewer Conditions

10-Day Weather Forecast

Almanac

Astronomy

Apr. 23, 2014 Rise Set
Actual Time 6:55 AM CDT 8:19 PM CDT
Civil Twilight 6:28 AM CDT 8:46 PM CDT
Nautical Twilight 5:56 AM CDT 9:18 PM CDT
Astronomical Twilight 5:22 AM CDT 9:52 PM CDT
Moon 3:17 AM CDT 2:40 PM CDT
Length of Visible Light 14h 17m
Length of Day
13h 24m
Tomorrow will be 2m 4s longer.
Waning Crescent, 32% of the Moon is Illuminated
Today
Waning Crescent
Apr 29
New
May 6
First Quarter
May 14
Full
May 21
Last Quarter

Today's Extremes

State Highs State Lows

Community

  • Nestled In
    Nestled In
  • Stunning Sunrise
    Stunning Sunrise
  • spring flowers
    spring flowers
  • Earth Day Spectrum Ove' Blue
    Earth Day Spectrum Ove' Blue
  • BARN B&W
    BARN B&W

WunderPhotos

Upload Photos

1,704,454 photos uploaded!

WunderBlogs® & News

Nearby

Snow Depth

Station Depth Elevation
No new snow has been reported.

Coastal Water Temperatures

Place Temperature
No Stations Reporting

Earthquake Activity

City Distance Mag. Time & Date
Enid, Oklahoma 112 miles 2.9 1:11 PM CDT
2014-04-19
Medford, Oklahoma 111 miles 2.9 3:07 AM CDT
2014-04-19
Helena, Oklahoma 96 miles 3.4 6:50 AM CDT
2014-04-17
Minimum magnitude displayed is 2.5.

Nearby Weather Stations

Station Location Temp. Heat Index Dew Point Humidity Wind Precip. Elev Updated Type
Barnes - Farm, Gage, OK 79.7 °F 80 °F 58 °F 47% SSE  at  21.0 mph 0.00 in / hr 2220 ft 6:17 PM CDT Rapid Fire

Show More Stations Show Fewer Stations

What do you think?

We're not finished. Please let us know what you like, what you don't like, and what you are still missing.